Terminal Aerodrome Forecast
Issued by NWS

Home | Current Version | Previous Version | Text Only | Print | Product List | Glossary On
Versions: 1 2 3 4 5 6 7 8 9 10 11 12 13 14 15 16 17
164
FTUS43 KAPX 081003 AAA
TAFAPN
TAF AMD
KAPN 081003Z 0810/0906 00000KT 5SM BR SCT035 BKN070
      TEMPO 0810/0813 3SM BR
     FM081500 VRB02KT P6SM SCT035 BKN100
     FM082200 27003KT 3SM BR OVC012=

USA.gov is the U.S. government's official web portal to all federal, state and local government web resources and services.